sensor_id;sensor_type;location;lat;lon;timestamp;P1;durP1;ratioP1;P2;durP2;ratioP2
11171;SDS011;5642;50.830;12.082;2022-10-30T00:00:37;4.10;;;2.38;;
11171;SDS011;5642;50.830;12.082;2022-10-30T00:03:04;5.10;;;2.70;;
11171;SDS011;5642;50.830;12.082;2022-10-30T00:05:35;3.08;;;2.33;;
11171;SDS011;5642;50.830;12.082;2022-10-30T00:08:04;3.97;;;2.45;;
11171;SDS011;5642;50.830;12.082;2022-10-30T00:10:30;3.40;;;2.60;;
11171;SDS011;5642;50.830;12.082;2022-10-30T00:12:56;3.30;;;2.50;;
11171;SDS011;5642;50.830;12.082;2022-10-30T00:15:23;3.85;;;2.40;;
11171;SDS011;5642;50.830;12.082;2022-10-30T00:17:50;3.40;;;2.15;;
11171;SDS011;5642;50.830;12.082;2022-10-30T00:20:16;2.78;;;2.22;;
11171;SDS011;5642;50.830;12.082;2022-10-30T00:22:42;2.85;;;2.33;;
11171;SDS011;5642;50.830;12.082;2022-10-30T00:25:08;6.18;;;2.30;;
11171;SDS011;5642;50.830;12.082;2022-10-30T00:27:34;2.97;;;2.28;;
11171;SDS011;5642;50.830;12.082;2022-10-30T00:30:01;2.67;;;2.20;;
11171;SDS011;5642;50.830;12.082;2022-10-30T00:32:27;2.85;;;2.40;;
11171;SDS011;5642;50.830;12.082;2022-10-30T00:34:53;2.63;;;2.30;;
11171;SDS011;5642;50.830;12.082;2022-10-30T00:37:19;4.43;;;2.17;;
11171;SDS011;5642;50.830;12.082;2022-10-30T00:39:46;3.35;;;2.40;;
11171;SDS011;5642;50.830;12.082;2022-10-30T00:42:12;5.55;;;2.65;;
11171;SDS011;5642;50.830;12.082;2022-10-30T00:44:50;2.90;;;2.30;;
11171;SDS011;5642;50.830;12.082;2022-10-30T00:47:25;6.68;;;2.60;;
11171;SDS011;5642;50.830;12.082;2022-10-30T00:50:01;5.45;;;2.60;;
11171;SDS011;5642;50.830;12.082;2022-10-30T00:52:36;3.95;;;2.17;;
11171;SDS011;5642;50.830;12.082;2022-10-30T00:55:10;4.03;;;2.40;;
11171;SDS011;5642;50.830;12.082;2022-10-30T00:57:41;3.63;;;2.38;;
11171;SDS011;5642;50.830;12.082;2022-10-30T01:00:09;3.22;;;2.42;;
11171;SDS011;5642;50.830;12.082;2022-10-30T01:02:37;3.65;;;2.55;;
11171;SDS011;5642;50.830;12.082;2022-10-30T01:05:04;4.50;;;2.30;;
11171;SDS011;5642;50.830;12.082;2022-10-30T01:07:31;4.40;;;2.40;;
11171;SDS011;5642;50.830;12.082;2022-10-30T01:09:57;3.35;;;2.50;;
11171;SDS011;5642;50.830;12.082;2022-10-30T01:12:24;4.72;;;2.28;;
11171;SDS011;5642;50.830;12.082;2022-10-30T01:14:51;4.40;;;2.30;;
11171;SDS011;5642;50.830;12.082;2022-10-30T01:20:01;3.78;;;2.45;;
11171;SDS011;5642;50.830;12.082;2022-10-30T01:33:40;3.53;;;2.50;;
11171;SDS011;5642;50.830;12.082;2022-10-30T01:36:27;3.20;;;2.40;;
11171;SDS011;5642;50.830;12.082;2022-10-30T01:39:18;2.30;;;2.03;;
11171;SDS011;5642;50.830;12.082;2022-10-30T01:41:48;3.75;;;2.38;;
11171;SDS011;5642;50.830;12.082;2022-10-30T01:44:16;3.95;;;2.50;;
11171;SDS011;5642;50.830;12.082;2022-10-30T01:57:33;2.63;;;2.30;;
11171;SDS011;5642;50.830;12.082;2022-10-30T02:00:08;3.22;;;2.05;;
11171;SDS011;5642;50.830;12.082;2022-10-30T02:02:36;3.72;;;2.17;;
11171;SDS011;5642;50.830;12.082;2022-10-30T02:05:03;2.70;;;2.10;;
11171;SDS011;5642;50.830;12.082;2022-10-30T02:07:31;3.05;;;2.40;;
11171;SDS011;5642;50.830;12.082;2022-10-30T02:09:57;3.20;;;2.10;;
11171;SDS011;5642;50.830;12.082;2022-10-30T02:12:24;2.42;;;2.00;;
11171;SDS011;5642;50.830;12.082;2022-10-30T02:14:55;3.05;;;2.28;;
11171;SDS011;5642;50.830;12.082;2022-10-30T02:17:23;3.63;;;2.17;;
11171;SDS011;5642;50.830;12.082;2022-10-30T02:19:50;2.60;;;2.10;;
11171;SDS011;5642;50.830;12.082;2022-10-30T02:22:16;3.08;;;2.30;;
11171;SDS011;5642;50.830;12.082;2022-10-30T02:24:43;4.57;;;2.08;;
11171;SDS011;5642;50.830;12.082;2022-10-30T02:27:10;4.63;;;2.20;;
11171;SDS011;5642;50.830;12.082;2022-10-30T02:29:36;2.58;;;2.05;;
11171;SDS011;5642;50.830;12.082;2022-10-30T02:32:02;3.38;;;2.20;;
11171;SDS011;5642;50.830;12.082;2022-10-30T02:34:29;3.05;;;2.47;;
11171;SDS011;5642;50.830;12.082;2022-10-30T02:36:55;3.75;;;2.17;;
11171;SDS011;5642;50.830;12.082;2022-10-30T02:39:21;4.47;;;2.13;;
11171;SDS011;5642;50.830;12.082;2022-10-30T02:41:47;2.15;;;2.00;;
11171;SDS011;5642;50.830;12.082;2022-10-30T02:44:13;3.85;;;2.35;;
11171;SDS011;5642;50.830;12.082;2022-10-30T02:46:39;4.53;;;2.33;;
11171;SDS011;5642;50.830;12.082;2022-10-30T02:49:06;3.60;;;2.50;;
11171;SDS011;5642;50.830;12.082;2022-10-30T02:51:32;5.05;;;2.60;;
11171;SDS011;5642;50.830;12.082;2022-10-30T02:53:59;4.40;;;2.13;;
11171;SDS011;5642;50.830;12.082;2022-10-30T02:56:25;4.65;;;2.10;;
11171;SDS011;5642;50.830;12.082;2022-10-30T02:58:53;2.40;;;2.20;;
11171;SDS011;5642;50.830;12.082;2022-10-30T03:01:20;2.55;;;2.17;;
11171;SDS011;5642;50.830;12.082;2022-10-30T03:03:46;3.47;;;2.10;;
11171;SDS011;5642;50.830;12.082;2022-10-30T03:06:13;4.38;;;2.10;;
11171;SDS011;5642;50.830;12.082;2022-10-30T03:08:41;4.72;;;2.20;;
11171;SDS011;5642;50.830;12.082;2022-10-30T03:11:09;2.70;;;2.17;;
11171;SDS011;5642;50.830;12.082;2022-10-30T03:13:38;4.50;;;2.38;;
11171;SDS011;5642;50.830;12.082;2022-10-30T03:16:08;4.10;;;2.47;;
11171;SDS011;5642;50.830;12.082;2022-10-30T03:18:37;2.33;;;2.00;;
11171;SDS011;5642;50.830;12.082;2022-10-30T03:21:04;2.97;;;2.63;;
11171;SDS011;5642;50.830;12.082;2022-10-30T03:23:32;3.33;;;2.35;;
11171;SDS011;5642;50.830;12.082;2022-10-30T03:25:58;2.28;;;2.08;;
11171;SDS011;5642;50.830;12.082;2022-10-30T03:28:25;3.58;;;1.90;;
11171;SDS011;5642;50.830;12.082;2022-10-30T03:30:59;2.83;;;1.90;;
11171;SDS011;5642;50.830;12.082;2022-10-30T03:33:27;2.20;;;2.00;;
11171;SDS011;5642;50.830;12.082;2022-10-30T03:35:53;1.70;;;1.60;;
11171;SDS011;5642;50.830;12.082;2022-10-30T03:38:20;2.70;;;1.92;;
11171;SDS011;5642;50.830;12.082;2022-10-30T03:40:46;2.85;;;1.98;;
11171;SDS011;5642;50.830;12.082;2022-10-30T03:43:12;2.47;;;2.10;;
11171;SDS011;5642;50.830;12.082;2022-10-30T03:45:45;1.75;;;1.65;;
11171;SDS011;5642;50.830;12.082;2022-10-30T03:48:16;2.10;;;1.85;;
11171;SDS011;5642;50.830;12.082;2022-10-30T03:50:44;2.97;;;1.90;;
11171;SDS011;5642;50.830;12.082;2022-10-30T03:53:11;2.65;;;1.90;;
11171;SDS011;5642;50.830;12.082;2022-10-30T03:55:37;1.98;;;1.60;;
11171;SDS011;5642;50.830;12.082;2022-10-30T03:58:04;1.95;;;1.75;;
11171;SDS011;5642;50.830;12.082;2022-10-30T04:00:31;2.42;;;1.77;;
11171;SDS011;5642;50.830;12.082;2022-10-30T04:02:58;3.38;;;2.00;;
11171;SDS011;5642;50.830;12.082;2022-10-30T04:05:25;2.10;;;1.90;;
11171;SDS011;5642;50.830;12.082;2022-10-30T04:07:56;2.03;;;1.80;;
11171;SDS011;5642;50.830;12.082;2022-10-30T04:10:23;6.28;;;2.00;;
11171;SDS011;5642;50.830;12.082;2022-10-30T04:12:50;2.80;;;1.92;;
11171;SDS011;5642;50.830;12.082;2022-10-30T04:15:17;3.92;;;1.90;;
11171;SDS011;5642;50.830;12.082;2022-10-30T04:17:49;2.63;;;1.80;;
11171;SDS011;5642;50.830;12.082;2022-10-30T04:20:16;4.97;;;2.10;;
11171;SDS011;5642;50.830;12.082;2022-10-30T04:22:43;2.50;;;1.95;;
11171;SDS011;5642;50.830;12.082;2022-10-30T04:25:10;2.35;;;1.92;;
11171;SDS011;5642;50.830;12.082;2022-10-30T04:27:43;2.55;;;1.77;;
11171;SDS011;5642;50.830;12.082;2022-10-30T04:30:10;2.65;;;2.03;;
11171;SDS011;5642;50.830;12.082;2022-10-30T04:32:50;1.98;;;1.70;;
11171;SDS011;5642;50.830;12.082;2022-10-30T04:35:18;2.00;;;1.80;;
11171;SDS011;5642;50.830;12.082;2022-10-30T04:37:53;2.15;;;1.90;;
11171;SDS011;5642;50.830;12.082;2022-10-30T04:40:27;2.63;;;1.80;;
11171;SDS011;5642;50.830;12.082;2022-10-30T04:42:54;2.22;;;1.90;;
11171;SDS011;5642;50.830;12.082;2022-10-30T04:45:21;2.35;;;2.00;;
11171;SDS011;5642;50.830;12.082;2022-10-30T04:47:47;2.45;;;1.90;;
11171;SDS011;5642;50.830;12.082;2022-10-30T04:50:13;2.67;;;1.83;;
11171;SDS011;5642;50.830;12.082;2022-10-30T04:52:40;2.25;;;1.70;;
11171;SDS011;5642;50.830;12.082;2022-10-30T04:55:07;3.33;;;1.90;;
11171;SDS011;5642;50.830;12.082;2022-10-30T04:57:35;2.38;;;1.85;;
11171;SDS011;5642;50.830;12.082;2022-10-30T05:00:04;2.17;;;1.88;;
11171;SDS011;5642;50.830;12.082;2022-10-30T05:02:35;3.58;;;2.00;;
11171;SDS011;5642;50.830;12.082;2022-10-30T05:05:02;2.03;;;1.75;;
11171;SDS011;5642;50.830;12.082;2022-10-30T05:07:29;3.33;;;1.80;;
11171;SDS011;5642;50.830;12.082;2022-10-30T05:09:55;3.60;;;2.00;;
11171;SDS011;5642;50.830;12.082;2022-10-30T05:12:21;2.17;;;1.77;;
11171;SDS011;5642;50.830;12.082;2022-10-30T05:14:47;3.03;;;1.65;;
11171;SDS011;5642;50.830;12.082;2022-10-30T05:17:13;2.70;;;1.80;;
11171;SDS011;5642;50.830;12.082;2022-10-30T05:19:40;2.15;;;1.90;;
11171;SDS011;5642;50.830;12.082;2022-10-30T05:22:06;2.10;;;2.00;;
11171;SDS011;5642;50.830;12.082;2022-10-30T05:24:34;2.20;;;1.75;;
11171;SDS011;5642;50.830;12.082;2022-10-30T05:27:01;2.65;;;1.92;;
11171;SDS011;5642;50.830;12.082;2022-10-30T05:29:27;2.67;;;1.80;;
11171;SDS011;5642;50.830;12.082;2022-10-30T05:31:53;3.05;;;1.88;;
11171;SDS011;5642;50.830;12.082;2022-10-30T05:34:19;3.55;;;1.90;;
11171;SDS011;5642;50.830;12.082;2022-10-30T05:36:45;2.45;;;1.77;;
11171;SDS011;5642;50.830;12.082;2022-10-30T05:39:11;2.30;;;1.83;;
11171;SDS011;5642;50.830;12.082;2022-10-30T05:41:38;2.83;;;1.83;;
11171;SDS011;5642;50.830;12.082;2022-10-30T05:44:03;1.80;;;1.70;;
11171;SDS011;5642;50.830;12.082;2022-10-30T05:46:34;4.82;;;2.10;;
11171;SDS011;5642;50.830;12.082;2022-10-30T05:49:00;4.13;;;2.20;;
11171;SDS011;5642;50.830;12.082;2022-10-30T05:51:26;6.80;;;2.67;;
11171;SDS011;5642;50.830;12.082;2022-10-30T05:53:52;4.40;;;2.42;;
11171;SDS011;5642;50.830;12.082;2022-10-30T05:56:19;6.25;;;2.63;;
11171;SDS011;5642;50.830;12.082;2022-10-30T05:58:46;3.80;;;2.33;;
11171;SDS011;5642;50.830;12.082;2022-10-30T06:01:13;4.90;;;2.30;;
11171;SDS011;5642;50.830;12.082;2022-10-30T06:03:43;3.10;;;2.10;;
11171;SDS011;5642;50.830;12.082;2022-10-30T06:06:09;5.05;;;2.10;;
11171;SDS011;5642;50.830;12.082;2022-10-30T06:08:36;2.83;;;2.00;;
11171;SDS011;5642;50.830;12.082;2022-10-30T06:11:02;2.85;;;2.00;;
11171;SDS011;5642;50.830;12.082;2022-10-30T06:13:29;3.22;;;1.90;;
11171;SDS011;5642;50.830;12.082;2022-10-30T06:15:56;2.00;;;1.80;;
11171;SDS011;5642;50.830;12.082;2022-10-30T06:18:23;2.33;;;2.08;;
11171;SDS011;5642;50.830;12.082;2022-10-30T06:20:49;2.45;;;2.00;;
11171;SDS011;5642;50.830;12.082;2022-10-30T06:23:15;1.85;;;1.75;;
11171;SDS011;5642;50.830;12.082;2022-10-30T06:25:41;2.17;;;1.50;;
11171;SDS011;5642;50.830;12.082;2022-10-30T06:28:10;3.05;;;1.70;;
11171;SDS011;5642;50.830;12.082;2022-10-30T06:30:38;3.67;;;2.00;;
11171;SDS011;5642;50.830;12.082;2022-10-30T06:33:05;3.58;;;2.10;;
11171;SDS011;5642;50.830;12.082;2022-10-30T06:35:32;5.65;;;2.40;;
11171;SDS011;5642;50.830;12.082;2022-10-30T06:37:59;4.10;;;2.00;;
11171;SDS011;5642;50.830;12.082;2022-10-30T06:40:25;1.95;;;1.85;;
11171;SDS011;5642;50.830;12.082;2022-10-30T06:42:52;3.25;;;2.35;;
11171;SDS011;5642;50.830;12.082;2022-10-30T06:45:20;3.53;;;2.08;;
11171;SDS011;5642;50.830;12.082;2022-10-30T06:47:47;4.03;;;1.98;;
11171;SDS011;5642;50.830;12.082;2022-10-30T06:50:14;2.30;;;2.00;;
11171;SDS011;5642;50.830;12.082;2022-10-30T06:52:51;4.85;;;2.00;;
11171;SDS011;5642;50.830;12.082;2022-10-30T06:55:20;2.20;;;2.00;;
11171;SDS011;5642;50.830;12.082;2022-10-30T06:57:51;2.35;;;1.80;;
11171;SDS011;5642;50.830;12.082;2022-10-30T07:00:18;3.38;;;1.80;;
11171;SDS011;5642;50.830;12.082;2022-10-30T07:02:53;2.97;;;1.83;;
11171;SDS011;5642;50.830;12.082;2022-10-30T07:05:23;2.75;;;2.03;;
11171;SDS011;5642;50.830;12.082;2022-10-30T07:07:49;2.10;;;1.67;;
11171;SDS011;5642;50.830;12.082;2022-10-30T07:10:15;2.80;;;1.85;;
11171;SDS011;5642;50.830;12.082;2022-10-30T07:12:42;2.10;;;1.90;;
11171;SDS011;5642;50.830;12.082;2022-10-30T07:15:08;2.72;;;1.67;;
11171;SDS011;5642;50.830;12.082;2022-10-30T07:17:34;2.17;;;1.63;;
11171;SDS011;5642;50.830;12.082;2022-10-30T07:20:02;2.53;;;1.92;;
11171;SDS011;5642;50.830;12.082;2022-10-30T07:22:29;2.65;;;1.65;;
11171;SDS011;5642;50.830;12.082;2022-10-30T07:24:55;2.20;;;1.75;;
11171;SDS011;5642;50.830;12.082;2022-10-30T07:27:21;2.80;;;1.73;;
11171;SDS011;5642;50.830;12.082;2022-10-30T07:29:47;2.72;;;1.50;;
11171;SDS011;5642;50.830;12.082;2022-10-30T07:32:13;2.53;;;1.75;;
11171;SDS011;5642;50.830;12.082;2022-10-30T07:34:39;2.28;;;1.50;;
11171;SDS011;5642;50.830;12.082;2022-10-30T07:37:05;1.90;;;1.80;;
11171;SDS011;5642;50.830;12.082;2022-10-30T07:39:32;2.83;;;2.08;;
11171;SDS011;5642;50.830;12.082;2022-10-30T07:41:58;2.50;;;2.00;;
11171;SDS011;5642;50.830;12.082;2022-10-30T07:44:24;3.25;;;2.05;;
11171;SDS011;5642;50.830;12.082;2022-10-30T07:46:50;2.45;;;2.05;;
11171;SDS011;5642;50.830;12.082;2022-10-30T07:49:16;3.20;;;2.20;;
11171;SDS011;5642;50.830;12.082;2022-10-30T07:51:43;3.03;;;2.20;;
11171;SDS011;5642;50.830;12.082;2022-10-30T07:54:09;3.00;;;2.10;;
11171;SDS011;5642;50.830;12.082;2022-10-30T07:56:35;2.40;;;2.20;;
11171;SDS011;5642;50.830;12.082;2022-10-30T07:59:01;3.38;;;2.10;;
11171;SDS011;5642;50.830;12.082;2022-10-30T08:01:27;3.00;;;1.90;;
11171;SDS011;5642;50.830;12.082;2022-10-30T08:03:54;2.28;;;1.80;;
11171;SDS011;5642;50.830;12.082;2022-10-30T08:06:20;1.90;;;1.80;;
11171;SDS011;5642;50.830;12.082;2022-10-30T08:08:46;4.32;;;2.28;;
11171;SDS011;5642;50.830;12.082;2022-10-30T08:11:12;1.90;;;1.70;;
11171;SDS011;5642;50.830;12.082;2022-10-30T08:13:38;2.83;;;1.90;;
11171;SDS011;5642;50.830;12.082;2022-10-30T08:16:06;2.00;;;1.80;;
11171;SDS011;5642;50.830;12.082;2022-10-30T08:18:32;3.08;;;2.10;;
11171;SDS011;5642;50.830;12.082;2022-10-30T08:20:58;5.10;;;1.92;;
11171;SDS011;5642;50.830;12.082;2022-10-30T08:23:26;3.88;;;2.00;;
11171;SDS011;5642;50.830;12.082;2022-10-30T08:25:51;2.22;;;1.88;;
11171;SDS011;5642;50.830;12.082;2022-10-30T08:28:18;2.42;;;2.03;;
11171;SDS011;5642;50.830;12.082;2022-10-30T08:30:44;2.92;;;2.15;;
11171;SDS011;5642;50.830;12.082;2022-10-30T08:33:10;2.20;;;2.00;;
11171;SDS011;5642;50.830;12.082;2022-10-30T08:35:47;2.65;;;1.98;;
11171;SDS011;5642;50.830;12.082;2022-10-30T08:38:14;2.40;;;2.20;;
11171;SDS011;5642;50.830;12.082;2022-10-30T08:40:41;4.20;;;1.95;;
11171;SDS011;5642;50.830;12.082;2022-10-30T08:43:10;2.28;;;2.00;;
11171;SDS011;5642;50.830;12.082;2022-10-30T08:45:36;2.90;;;2.08;;
11171;SDS011;5642;50.830;12.082;2022-10-30T08:48:03;1.95;;;1.65;;
11171;SDS011;5642;50.830;12.082;2022-10-30T08:50:33;1.63;;;1.52;;
11171;SDS011;5642;50.830;12.082;2022-10-30T08:53:04;3.15;;;1.77;;
11171;SDS011;5642;50.830;12.082;2022-10-30T08:55:31;3.05;;;1.60;;
11171;SDS011;5642;50.830;12.082;2022-10-30T08:57:58;2.50;;;1.60;;
11171;SDS011;5642;50.830;12.082;2022-10-30T09:00:24;1.70;;;1.60;;
11171;SDS011;5642;50.830;12.082;2022-10-30T09:02:51;1.70;;;1.33;;
11171;SDS011;5642;50.830;12.082;2022-10-30T09:05:17;2.53;;;1.40;;
11171;SDS011;5642;50.830;12.082;2022-10-30T09:07:44;1.55;;;1.38;;
11171;SDS011;5642;50.830;12.082;2022-10-30T09:10:11;2.95;;;1.60;;
11171;SDS011;5642;50.830;12.082;2022-10-30T09:12:38;2.45;;;1.63;;
11171;SDS011;5642;50.830;12.082;2022-10-30T09:15:04;2.15;;;1.70;;
11171;SDS011;5642;50.830;12.082;2022-10-30T09:17:32;1.80;;;1.48;;
11171;SDS011;5642;50.830;12.082;2022-10-30T09:19:58;3.10;;;1.60;;
11171;SDS011;5642;50.830;12.082;2022-10-30T09:22:24;2.85;;;1.70;;
11171;SDS011;5642;50.830;12.082;2022-10-30T09:24:50;1.65;;;1.52;;
11171;SDS011;5642;50.830;12.082;2022-10-30T09:27:16;2.33;;;1.60;;
11171;SDS011;5642;50.830;12.082;2022-10-30T09:29:42;3.35;;;1.83;;
11171;SDS011;5642;50.830;12.082;2022-10-30T09:32:08;1.70;;;1.60;;
11171;SDS011;5642;50.830;12.082;2022-10-30T09:34:35;2.80;;;1.40;;
11171;SDS011;5642;50.830;12.082;2022-10-30T09:37:03;2.72;;;1.40;;
11171;SDS011;5642;50.830;12.082;2022-10-30T09:39:29;3.38;;;2.08;;
11171;SDS011;5642;50.830;12.082;2022-10-30T09:45:05;1.70;;;1.42;;
11171;SDS011;5642;50.830;12.082;2022-10-30T09:56:14;1.80;;;1.45;;
11171;SDS011;5642;50.830;12.082;2022-10-30T09:58:52;2.20;;;1.30;;
11171;SDS011;5642;50.830;12.082;2022-10-30T10:06:52;1.50;;;1.40;;
11171;SDS011;5642;50.830;12.082;2022-10-30T10:09:25;1.33;;;1.00;;
11171;SDS011;5642;50.830;12.082;2022-10-30T10:11:58;1.65;;;1.13;;
11171;SDS011;5642;50.830;12.082;2022-10-30T10:14:29;1.77;;;1.08;;
11171;SDS011;5642;50.830;12.082;2022-10-30T10:16:59;1.73;;;1.20;;
11171;SDS011;5642;50.830;12.082;2022-10-30T10:19:35;2.13;;;1.10;;
11171;SDS011;5642;50.830;12.082;2022-10-30T10:22:12;1.63;;;1.13;;
11171;SDS011;5642;50.830;12.082;2022-10-30T10:24:47;4.03;;;1.00;;
11171;SDS011;5642;50.830;12.082;2022-10-30T10:27:23;1.27;;;1.17;;
11171;SDS011;5642;50.830;12.082;2022-10-30T10:30:17;1.42;;;1.00;;
11171;SDS011;5642;50.830;12.082;2022-10-30T10:33:00;1.42;;;1.10;;
11171;SDS011;5642;50.830;12.082;2022-10-30T10:41:21;1.33;;;1.20;;
11171;SDS011;5642;50.830;12.082;2022-10-30T10:43:58;2.13;;;1.23;;
11171;SDS011;5642;50.830;12.082;2022-10-30T10:52:06;1.60;;;1.13;;
11171;SDS011;5642;50.830;12.082;2022-10-30T10:54:42;2.78;;;1.33;;
11171;SDS011;5642;50.830;12.082;2022-10-30T11:00:05;2.38;;;1.40;;
11171;SDS011;5642;50.830;12.082;2022-10-30T11:08:19;1.23;;;1.08;;
11171;SDS011;5642;50.830;12.082;2022-10-30T11:10:51;1.52;;;1.20;;
11171;SDS011;5642;50.830;12.082;2022-10-30T11:13:39;2.33;;;1.25;;
11171;SDS011;5642;50.830;12.082;2022-10-30T11:18:51;1.20;;;1.05;;
11171;SDS011;5642;50.830;12.082;2022-10-30T11:21:21;2.03;;;1.33;;
11171;SDS011;5642;50.830;12.082;2022-10-30T11:23:49;1.30;;;1.20;;
11171;SDS011;5642;50.830;12.082;2022-10-30T11:28:49;1.88;;;1.20;;
11171;SDS011;5642;50.830;12.082;2022-10-30T11:31:41;2.75;;;1.20;;
11171;SDS011;5642;50.830;12.082;2022-10-30T11:36:47;2.92;;;1.40;;
11171;SDS011;5642;50.830;12.082;2022-10-30T11:39:19;1.40;;;1.30;;
11171;SDS011;5642;50.830;12.082;2022-10-30T11:41:53;2.00;;;1.30;;
11171;SDS011;5642;50.830;12.082;2022-10-30T11:44:21;1.77;;;1.33;;
11171;SDS011;5642;50.830;12.082;2022-10-30T11:47:00;1.58;;;1.25;;
11171;SDS011;5642;50.830;12.082;2022-10-30T11:49:30;2.17;;;1.23;;
11171;SDS011;5642;50.830;12.082;2022-10-30T11:52:00;2.35;;;1.40;;
11171;SDS011;5642;50.830;12.082;2022-10-30T11:54:33;1.38;;;1.20;;
11171;SDS011;5642;50.830;12.082;2022-10-30T11:57:02;1.60;;;1.20;;
11171;SDS011;5642;50.830;12.082;2022-10-30T11:59:29;2.38;;;1.40;;
11171;SDS011;5642;50.830;12.082;2022-10-30T12:02:00;1.65;;;1.20;;
11171;SDS011;5642;50.830;12.082;2022-10-30T12:04:29;3.15;;;1.33;;
11171;SDS011;5642;50.830;12.082;2022-10-30T12:07:10;1.58;;;1.30;;
11171;SDS011;5642;50.830;12.082;2022-10-30T12:09:46;1.80;;;1.33;;
11171;SDS011;5642;50.830;12.082;2022-10-30T12:15:37;1.50;;;1.13;;
11171;SDS011;5642;50.830;12.082;2022-10-30T12:18:01;1.67;;;1.20;;
11171;SDS011;5642;50.830;12.082;2022-10-30T12:20:32;3.13;;;1.50;;
11171;SDS011;5642;50.830;12.082;2022-10-30T12:23:13;1.90;;;1.20;;
11171;SDS011;5642;50.830;12.082;2022-10-30T12:25:50;1.73;;;1.15;;
11171;SDS011;5642;50.830;12.082;2022-10-30T12:28:30;2.67;;;1.00;;
11171;SDS011;5642;50.830;12.082;2022-10-30T12:33:26;2.40;;;1.48;;
11171;SDS011;5642;50.830;12.082;2022-10-30T12:36:00;1.90;;;1.25;;
11171;SDS011;5642;50.830;12.082;2022-10-30T12:43:40;3.40;;;1.23;;
11171;SDS011;5642;50.830;12.082;2022-10-30T12:52:47;2.88;;;1.23;;
11171;SDS011;5642;50.830;12.082;2022-10-30T12:57:48;1.40;;;1.25;;
11171;SDS011;5642;50.830;12.082;2022-10-30T13:00:51;2.00;;;1.30;;
11171;SDS011;5642;50.830;12.082;2022-10-30T13:06:25;2.08;;;1.00;;
11171;SDS011;5642;50.830;12.082;2022-10-30T13:11:43;2.38;;;1.20;;
11171;SDS011;5642;50.830;12.082;2022-10-30T13:14:18;1.83;;;1.30;;
11171;SDS011;5642;50.830;12.082;2022-10-30T13:16:49;2.38;;;1.38;;
11171;SDS011;5642;50.830;12.082;2022-10-30T13:19:17;2.22;;;1.25;;
11171;SDS011;5642;50.830;12.082;2022-10-30T13:27:25;1.45;;;1.33;;
11171;SDS011;5642;50.830;12.082;2022-10-30T13:35:46;5.15;;;4.45;;
11171;SDS011;5642;50.830;12.082;2022-10-30T14:11:39;5.00;;;1.83;;
11171;SDS011;5642;50.830;12.082;2022-10-30T14:16:45;2.78;;;2.00;;
11171;SDS011;5642;50.830;12.082;2022-10-30T14:19:28;3.40;;;1.65;;
11171;SDS011;5642;50.830;12.082;2022-10-30T14:21:55;1.80;;;1.48;;
11171;SDS011;5642;50.830;12.082;2022-10-30T14:24:29;3.03;;;1.50;;
11171;SDS011;5642;50.830;12.082;2022-10-30T14:32:01;1.60;;;1.30;;
11171;SDS011;5642;50.830;12.082;2022-10-30T14:39:53;1.80;;;1.20;;
11171;SDS011;5642;50.830;12.082;2022-10-30T14:42:24;2.20;;;1.20;;
11171;SDS011;5642;50.830;12.082;2022-10-30T14:53:04;1.90;;;1.05;;
11171;SDS011;5642;50.830;12.082;2022-10-30T14:58:29;2.25;;;1.10;;
11171;SDS011;5642;50.830;12.082;2022-10-30T15:06:30;1.10;;;1.00;;
11171;SDS011;5642;50.830;12.082;2022-10-30T15:14:55;2.63;;;1.02;;
11171;SDS011;5642;50.830;12.082;2022-10-30T15:17:28;1.45;;;1.10;;
11171;SDS011;5642;50.830;12.082;2022-10-30T15:19:55;1.25;;;1.15;;
11171;SDS011;5642;50.830;12.082;2022-10-30T15:22:25;1.98;;;1.13;;
11171;SDS011;5642;50.830;12.082;2022-10-30T15:24:53;2.30;;;1.10;;
11171;SDS011;5642;50.830;12.082;2022-10-30T15:27:21;2.17;;;1.17;;
11171;SDS011;5642;50.830;12.082;2022-10-30T15:29:54;2.03;;;1.50;;
11171;SDS011;5642;50.830;12.082;2022-10-30T15:32:24;2.17;;;1.40;;
11171;SDS011;5642;50.830;12.082;2022-10-30T15:34:51;3.92;;;1.20;;
11171;SDS011;5642;50.830;12.082;2022-10-30T15:37:20;1.73;;;1.50;;
11171;SDS011;5642;50.830;12.082;2022-10-30T15:39:48;2.08;;;1.38;;
11171;SDS011;5642;50.830;12.082;2022-10-30T15:42:15;2.05;;;1.88;;
11171;SDS011;5642;50.830;12.082;2022-10-30T15:44:46;2.35;;;1.70;;
11171;SDS011;5642;50.830;12.082;2022-10-30T15:47:14;3.80;;;1.48;;
11171;SDS011;5642;50.830;12.082;2022-10-30T15:49:45;2.33;;;1.40;;
11171;SDS011;5642;50.830;12.082;2022-10-30T15:54:50;1.90;;;1.67;;
11171;SDS011;5642;50.830;12.082;2022-10-30T15:57:26;3.30;;;2.00;;
11171;SDS011;5642;50.830;12.082;2022-10-30T15:59:58;3.55;;;2.08;;
11171;SDS011;5642;50.830;12.082;2022-10-30T16:02:29;2.20;;;1.90;;
11171;SDS011;5642;50.830;12.082;2022-10-30T16:04:55;2.80;;;1.70;;
11171;SDS011;5642;50.830;12.082;2022-10-30T16:07:24;3.80;;;1.80;;
11171;SDS011;5642;50.830;12.082;2022-10-30T16:09:58;3.08;;;2.78;;
11171;SDS011;5642;50.830;12.082;2022-10-30T16:12:27;4.45;;;2.92;;
11171;SDS011;5642;50.830;12.082;2022-10-30T16:14:56;6.30;;;3.60;;
11171;SDS011;5642;50.830;12.082;2022-10-30T16:17:25;3.78;;;3.10;;
11171;SDS011;5642;50.830;12.082;2022-10-30T16:19:53;3.90;;;3.35;;
11171;SDS011;5642;50.830;12.082;2022-10-30T16:22:24;3.92;;;3.15;;
11171;SDS011;5642;50.830;12.082;2022-10-30T16:24:58;4.55;;;3.42;;
11171;SDS011;5642;50.830;12.082;2022-10-30T16:27:31;4.20;;;3.25;;
11171;SDS011;5642;50.830;12.082;2022-10-30T16:30:01;3.75;;;2.70;;
11171;SDS011;5642;50.830;12.082;2022-10-30T16:32:45;4.43;;;2.42;;
11171;SDS011;5642;50.830;12.082;2022-10-30T16:35:20;3.40;;;2.50;;
11171;SDS011;5642;50.830;12.082;2022-10-30T16:37:48;3.65;;;2.88;;
11171;SDS011;5642;50.830;12.082;2022-10-30T16:40:17;3.33;;;2.70;;
11171;SDS011;5642;50.830;12.082;2022-10-30T16:42:54;1.92;;;1.80;;
11171;SDS011;5642;50.830;12.082;2022-10-30T16:45:44;3.08;;;2.10;;
11171;SDS011;5642;50.830;12.082;2022-10-30T16:48:16;2.10;;;1.98;;
11171;SDS011;5642;50.830;12.082;2022-10-30T16:50:46;2.22;;;1.80;;
11171;SDS011;5642;50.830;12.082;2022-10-30T16:53:18;4.13;;;2.00;;
11171;SDS011;5642;50.830;12.082;2022-10-30T16:55:47;4.40;;;3.00;;
11171;SDS011;5642;50.830;12.082;2022-10-30T16:58:15;6.40;;;4.78;;
11171;SDS011;5642;50.830;12.082;2022-10-30T17:00:52;6.90;;;5.28;;
11171;SDS011;5642;50.830;12.082;2022-10-30T17:03:21;7.28;;;5.95;;
11171;SDS011;5642;50.830;12.082;2022-10-30T17:06:02;6.15;;;4.43;;
11171;SDS011;5642;50.830;12.082;2022-10-30T17:08:34;6.55;;;3.78;;
11171;SDS011;5642;50.830;12.082;2022-10-30T17:11:06;4.63;;;2.95;;
11171;SDS011;5642;50.830;12.082;2022-10-30T17:22:08;6.55;;;3.03;;
11171;SDS011;5642;50.830;12.082;2022-10-30T17:24:55;3.65;;;2.85;;
11171;SDS011;5642;50.830;12.082;2022-10-30T17:27:31;3.50;;;3.00;;
11171;SDS011;5642;50.830;12.082;2022-10-30T17:30:03;4.07;;;2.90;;
11171;SDS011;5642;50.830;12.082;2022-10-30T17:32:51;4.45;;;2.75;;
11171;SDS011;5642;50.830;12.082;2022-10-30T17:35:24;5.35;;;3.20;;
11171;SDS011;5642;50.830;12.082;2022-10-30T17:37:54;3.88;;;2.60;;
11171;SDS011;5642;50.830;12.082;2022-10-30T17:40:21;3.72;;;2.75;;
11171;SDS011;5642;50.830;12.082;2022-10-30T17:42:47;3.47;;;2.90;;
11171;SDS011;5642;50.830;12.082;2022-10-30T17:45:14;5.30;;;3.50;;
11171;SDS011;5642;50.830;12.082;2022-10-30T17:47:40;4.75;;;3.25;;
11171;SDS011;5642;50.830;12.082;2022-10-30T17:50:06;4.45;;;3.63;;
11171;SDS011;5642;50.830;12.082;2022-10-30T17:52:33;7.00;;;4.22;;
11171;SDS011;5642;50.830;12.082;2022-10-30T17:55:00;8.52;;;5.00;;
11171;SDS011;5642;50.830;12.082;2022-10-30T17:57:27;6.18;;;4.65;;
11171;SDS011;5642;50.830;12.082;2022-10-30T17:59:54;4.32;;;3.50;;
11171;SDS011;5642;50.830;12.082;2022-10-30T18:02:22;6.20;;;3.85;;
11171;SDS011;5642;50.830;12.082;2022-10-30T18:04:49;6.05;;;4.25;;
11171;SDS011;5642;50.830;12.082;2022-10-30T18:07:19;5.38;;;3.88;;